sensor_id;sensor_type;location;lat;lon;timestamp;P1;durP1;ratioP1;P2;durP2;ratioP2
59468;SDS011;45277;52.768;18.262;2022-08-20T00:00:41;49.45;;;31.25;;
59468;SDS011;45277;52.768;18.262;2022-08-20T00:02:14;43.10;;;29.20;;
59468;SDS011;45277;52.768;18.262;2022-08-20T00:03:48;46.03;;;28.88;;
59468;SDS011;45277;52.768;18.262;2022-08-20T00:05:22;43.42;;;28.17;;
59468;SDS011;45277;52.768;18.262;2022-08-20T00:07:02;40.00;;;27.42;;
59468;SDS011;45277;52.768;18.262;2022-08-20T00:08:35;40.92;;;28.08;;
59468;SDS011;45277;52.768;18.262;2022-08-20T00:10:09;45.83;;;28.73;;
59468;SDS011;45277;52.768;18.262;2022-08-20T00:11:40;44.60;;;28.85;;
59468;SDS011;45277;52.768;18.262;2022-08-20T00:13:16;41.08;;;28.20;;
59468;SDS011;45277;52.768;18.262;2022-08-20T00:14:50;44.55;;;29.73;;
59468;SDS011;45277;52.768;18.262;2022-08-20T00:16:22;43.90;;;29.30;;
59468;SDS011;45277;52.768;18.262;2022-08-20T00:17:55;45.78;;;29.55;;
59468;SDS011;45277;52.768;18.262;2022-08-20T00:19:29;42.95;;;29.73;;
59468;SDS011;45277;52.768;18.262;2022-08-20T00:21:03;46.50;;;29.98;;
59468;SDS011;45277;52.768;18.262;2022-08-20T00:22:38;39.33;;;29.00;;
59468;SDS011;45277;52.768;18.262;2022-08-20T00:24:10;45.92;;;28.70;;
59468;SDS011;45277;52.768;18.262;2022-08-20T00:25:43;41.08;;;28.35;;
59468;SDS011;45277;52.768;18.262;2022-08-20T00:27:16;40.00;;;28.40;;
59468;SDS011;45277;52.768;18.262;2022-08-20T00:28:50;46.60;;;27.02;;
59468;SDS011;45277;52.768;18.262;2022-08-20T00:30:24;43.40;;;28.20;;
59468;SDS011;45277;52.768;18.262;2022-08-20T00:31:58;41.08;;;26.65;;
59468;SDS011;45277;52.768;18.262;2022-08-20T00:33:30;42.40;;;28.30;;
59468;SDS011;45277;52.768;18.262;2022-08-20T00:35:02;38.75;;;28.73;;
59468;SDS011;45277;52.768;18.262;2022-08-20T00:36:35;40.08;;;28.00;;
59468;SDS011;45277;52.768;18.262;2022-08-20T00:38:07;39.67;;;26.95;;
59468;SDS011;45277;52.768;18.262;2022-08-20T00:39:40;38.30;;;27.48;;
59468;SDS011;45277;52.768;18.262;2022-08-20T00:41:23;38.95;;;26.27;;
59468;SDS011;45277;52.768;18.262;2022-08-20T00:42:57;35.97;;;26.27;;
59468;SDS011;45277;52.768;18.262;2022-08-20T00:44:31;36.17;;;24.45;;
59468;SDS011;45277;52.768;18.262;2022-08-20T00:46:07;35.38;;;25.45;;
59468;SDS011;45277;52.768;18.262;2022-08-20T00:47:41;41.83;;;26.10;;
59468;SDS011;45277;52.768;18.262;2022-08-20T00:49:14;33.50;;;24.35;;
59468;SDS011;45277;52.768;18.262;2022-08-20T00:50:48;32.67;;;23.80;;
59468;SDS011;45277;52.768;18.262;2022-08-20T00:52:21;37.53;;;25.40;;
59468;SDS011;45277;52.768;18.262;2022-08-20T00:53:54;35.10;;;24.25;;
59468;SDS011;45277;52.768;18.262;2022-08-20T00:55:32;32.85;;;24.17;;
59468;SDS011;45277;52.768;18.262;2022-08-20T00:57:17;35.13;;;24.15;;
59468;SDS011;45277;52.768;18.262;2022-08-20T00:59:11;31.70;;;23.08;;
59468;SDS011;45277;52.768;18.262;2022-08-20T01:02:28;38.40;;;24.80;;
59468;SDS011;45277;52.768;18.262;2022-08-20T01:04:01;30.90;;;22.80;;
59468;SDS011;45277;52.768;18.262;2022-08-20T01:05:39;31.23;;;23.73;;
59468;SDS011;45277;52.768;18.262;2022-08-20T01:07:14;32.63;;;23.88;;
59468;SDS011;45277;52.768;18.262;2022-08-20T01:08:47;35.30;;;24.17;;
59468;SDS011;45277;52.768;18.262;2022-08-20T01:10:22;35.45;;;25.67;;
59468;SDS011;45277;52.768;18.262;2022-08-20T01:12:01;34.92;;;25.73;;
59468;SDS011;45277;52.768;18.262;2022-08-20T01:13:35;35.30;;;24.42;;
59468;SDS011;45277;52.768;18.262;2022-08-20T01:15:10;35.72;;;24.75;;
59468;SDS011;45277;52.768;18.262;2022-08-20T01:16:53;31.75;;;23.10;;
59468;SDS011;45277;52.768;18.262;2022-08-20T01:18:31;35.95;;;23.08;;
59468;SDS011;45277;52.768;18.262;2022-08-20T01:20:10;33.58;;;22.27;;
59468;SDS011;45277;52.768;18.262;2022-08-20T01:21:44;31.35;;;22.77;;
59468;SDS011;45277;52.768;18.262;2022-08-20T01:25:07;33.60;;;18.48;;
59468;SDS011;45277;52.768;18.262;2022-08-20T01:26:44;28.63;;;18.95;;
59468;SDS011;45277;52.768;18.262;2022-08-20T01:28:23;27.20;;;17.92;;
59468;SDS011;45277;52.768;18.262;2022-08-20T01:30:19;27.60;;;17.50;;
59468;SDS011;45277;52.768;18.262;2022-08-20T01:31:50;24.92;;;17.02;;
59468;SDS011;45277;52.768;18.262;2022-08-20T01:33:22;26.33;;;16.38;;
59468;SDS011;45277;52.768;18.262;2022-08-20T01:34:55;24.63;;;16.23;;
59468;SDS011;45277;52.768;18.262;2022-08-20T01:36:30;28.08;;;15.27;;
59468;SDS011;45277;52.768;18.262;2022-08-20T01:38:06;24.13;;;16.27;;
59468;SDS011;45277;52.768;18.262;2022-08-20T01:39:39;20.70;;;15.32;;
59468;SDS011;45277;52.768;18.262;2022-08-20T01:41:28;24.55;;;15.18;;
59468;SDS011;45277;52.768;18.262;2022-08-20T01:43:11;25.75;;;15.60;;
59468;SDS011;45277;52.768;18.262;2022-08-20T01:44:43;22.65;;;14.43;;
59468;SDS011;45277;52.768;18.262;2022-08-20T01:46:17;23.10;;;14.10;;
59468;SDS011;45277;52.768;18.262;2022-08-20T01:47:48;27.15;;;15.18;;
59468;SDS011;45277;52.768;18.262;2022-08-20T01:49:22;21.60;;;13.73;;
59468;SDS011;45277;52.768;18.262;2022-08-20T01:51:04;24.05;;;14.15;;
59468;SDS011;45277;52.768;18.262;2022-08-20T01:52:54;20.95;;;13.82;;
59468;SDS011;45277;52.768;18.262;2022-08-20T01:56:19;19.13;;;14.07;;
59468;SDS011;45277;52.768;18.262;2022-08-20T01:57:55;21.23;;;14.23;;
59468;SDS011;45277;52.768;18.262;2022-08-20T01:59:27;25.27;;;13.68;;
59468;SDS011;45277;52.768;18.262;2022-08-20T02:00:59;21.85;;;14.10;;
59468;SDS011;45277;52.768;18.262;2022-08-20T02:02:31;20.55;;;12.55;;
59468;SDS011;45277;52.768;18.262;2022-08-20T02:05:39;22.38;;;13.25;;
59468;SDS011;45277;52.768;18.262;2022-08-20T02:07:14;22.75;;;13.10;;
59468;SDS011;45277;52.768;18.262;2022-08-20T02:08:49;19.52;;;13.40;;
59468;SDS011;45277;52.768;18.262;2022-08-20T02:10:26;16.20;;;12.98;;
59468;SDS011;45277;52.768;18.262;2022-08-20T02:11:59;20.45;;;13.02;;
59468;SDS011;45277;52.768;18.262;2022-08-20T02:13:34;17.38;;;12.18;;
59468;SDS011;45277;52.768;18.262;2022-08-20T02:15:08;22.33;;;12.68;;
59468;SDS011;45277;52.768;18.262;2022-08-20T02:16:44;20.88;;;13.50;;
59468;SDS011;45277;52.768;18.262;2022-08-20T02:18:17;21.35;;;11.85;;
59468;SDS011;45277;52.768;18.262;2022-08-20T02:19:52;19.50;;;12.35;;
59468;SDS011;45277;52.768;18.262;2022-08-20T02:21:32;22.85;;;12.00;;
59468;SDS011;45277;52.768;18.262;2022-08-20T02:23:05;15.70;;;11.27;;
59468;SDS011;45277;52.768;18.262;2022-08-20T02:24:52;16.63;;;12.18;;
59468;SDS011;45277;52.768;18.262;2022-08-20T02:26:25;23.05;;;12.40;;
59468;SDS011;45277;52.768;18.262;2022-08-20T02:27:57;18.48;;;12.00;;
59468;SDS011;45277;52.768;18.262;2022-08-20T02:29:31;20.27;;;11.07;;
59468;SDS011;45277;52.768;18.262;2022-08-20T02:31:09;20.88;;;10.77;;
59468;SDS011;45277;52.768;18.262;2022-08-20T02:32:43;17.67;;;11.02;;
59468;SDS011;45277;52.768;18.262;2022-08-20T02:34:15;19.35;;;11.02;;
59468;SDS011;45277;52.768;18.262;2022-08-20T02:35:47;16.85;;;10.70;;
59468;SDS011;45277;52.768;18.262;2022-08-20T02:37:20;18.75;;;10.48;;
59468;SDS011;45277;52.768;18.262;2022-08-20T02:38:52;25.88;;;10.57;;
59468;SDS011;45277;52.768;18.262;2022-08-20T02:40:25;15.32;;;9.98;;
59468;SDS011;45277;52.768;18.262;2022-08-20T02:41:58;21.27;;;10.30;;
59468;SDS011;45277;52.768;18.262;2022-08-20T02:43:32;18.10;;;9.45;;
59468;SDS011;45277;52.768;18.262;2022-08-20T02:45:06;18.92;;;10.10;;
59468;SDS011;45277;52.768;18.262;2022-08-20T02:46:41;17.33;;;10.00;;
59468;SDS011;45277;52.768;18.262;2022-08-20T02:48:15;15.07;;;9.75;;
59468;SDS011;45277;52.768;18.262;2022-08-20T02:49:50;17.40;;;10.10;;
59468;SDS011;45277;52.768;18.262;2022-08-20T02:51:22;18.10;;;10.95;;
59468;SDS011;45277;52.768;18.262;2022-08-20T02:52:54;22.40;;;10.93;;
59468;SDS011;45277;52.768;18.262;2022-08-20T02:54:25;21.77;;;12.07;;
59468;SDS011;45277;52.768;18.262;2022-08-20T02:55:58;19.98;;;12.77;;
59468;SDS011;45277;52.768;18.262;2022-08-20T02:57:32;20.67;;;12.10;;
59468;SDS011;45277;52.768;18.262;2022-08-20T02:59:04;22.33;;;12.25;;
59468;SDS011;45277;52.768;18.262;2022-08-20T03:00:42;22.75;;;12.45;;
59468;SDS011;45277;52.768;18.262;2022-08-20T03:02:14;22.58;;;12.52;;
59468;SDS011;45277;52.768;18.262;2022-08-20T03:03:48;24.48;;;12.00;;
59468;SDS011;45277;52.768;18.262;2022-08-20T03:05:20;21.67;;;11.60;;
59468;SDS011;45277;52.768;18.262;2022-08-20T03:06:51;19.23;;;11.82;;
59468;SDS011;45277;52.768;18.262;2022-08-20T03:08:23;21.63;;;12.05;;
59468;SDS011;45277;52.768;18.262;2022-08-20T03:09:58;20.92;;;11.88;;
59468;SDS011;45277;52.768;18.262;2022-08-20T03:11:29;17.70;;;12.05;;
59468;SDS011;45277;52.768;18.262;2022-08-20T03:13:02;23.33;;;11.63;;
59468;SDS011;45277;52.768;18.262;2022-08-20T03:14:34;24.42;;;11.85;;
59468;SDS011;45277;52.768;18.262;2022-08-20T03:16:07;20.65;;;12.45;;
59468;SDS011;45277;52.768;18.262;2022-08-20T03:17:39;22.77;;;12.18;;
59468;SDS011;45277;52.768;18.262;2022-08-20T03:19:12;20.73;;;12.45;;
59468;SDS011;45277;52.768;18.262;2022-08-20T03:20:43;23.35;;;12.32;;
59468;SDS011;45277;52.768;18.262;2022-08-20T03:22:16;26.60;;;13.48;;
59468;SDS011;45277;52.768;18.262;2022-08-20T03:23:48;25.60;;;13.82;;
59468;SDS011;45277;52.768;18.262;2022-08-20T03:25:20;23.83;;;14.05;;
59468;SDS011;45277;52.768;18.262;2022-08-20T03:26:58;23.90;;;13.50;;
59468;SDS011;45277;52.768;18.262;2022-08-20T03:28:30;25.65;;;14.32;;
59468;SDS011;45277;52.768;18.262;2022-08-20T03:30:04;29.05;;;15.13;;
59468;SDS011;45277;52.768;18.262;2022-08-20T03:31:38;29.77;;;16.52;;
59468;SDS011;45277;52.768;18.262;2022-08-20T03:33:10;26.13;;;15.45;;
59468;SDS011;45277;52.768;18.262;2022-08-20T03:34:42;22.25;;;14.32;;
59468;SDS011;45277;52.768;18.262;2022-08-20T03:36:13;24.02;;;15.55;;
59468;SDS011;45277;52.768;18.262;2022-08-20T03:37:48;23.75;;;14.90;;
59468;SDS011;45277;52.768;18.262;2022-08-20T03:39:19;26.73;;;14.90;;
59468;SDS011;45277;52.768;18.262;2022-08-20T03:40:52;25.27;;;16.45;;
59468;SDS011;45277;52.768;18.262;2022-08-20T03:42:23;25.25;;;16.30;;
59468;SDS011;45277;52.768;18.262;2022-08-20T03:44:03;22.30;;;15.93;;
59468;SDS011;45277;52.768;18.262;2022-08-20T03:45:37;28.15;;;16.23;;
59468;SDS011;45277;52.768;18.262;2022-08-20T03:47:10;23.40;;;15.50;;
59468;SDS011;45277;52.768;18.262;2022-08-20T03:48:41;25.48;;;15.45;;
59468;SDS011;45277;52.768;18.262;2022-08-20T03:50:13;24.05;;;16.83;;
59468;SDS011;45277;52.768;18.262;2022-08-20T03:51:45;25.73;;;16.90;;
59468;SDS011;45277;52.768;18.262;2022-08-20T03:53:17;26.90;;;16.45;;
59468;SDS011;45277;52.768;18.262;2022-08-20T03:54:49;27.33;;;16.45;;
59468;SDS011;45277;52.768;18.262;2022-08-20T03:56:20;24.10;;;15.43;;
59468;SDS011;45277;52.768;18.262;2022-08-20T03:57:59;22.67;;;15.77;;
59468;SDS011;45277;52.768;18.262;2022-08-20T03:59:33;30.48;;;16.77;;
59468;SDS011;45277;52.768;18.262;2022-08-20T04:01:05;27.77;;;16.08;;
59468;SDS011;45277;52.768;18.262;2022-08-20T04:02:39;26.95;;;16.15;;
59468;SDS011;45277;52.768;18.262;2022-08-20T04:04:10;27.20;;;16.17;;
59468;SDS011;45277;52.768;18.262;2022-08-20T04:05:42;27.00;;;16.95;;
59468;SDS011;45277;52.768;18.262;2022-08-20T04:07:20;23.10;;;16.83;;
59468;SDS011;45277;52.768;18.262;2022-08-20T04:08:59;29.98;;;16.50;;
59468;SDS011;45277;52.768;18.262;2022-08-20T04:12:17;24.88;;;17.10;;
59468;SDS011;45277;52.768;18.262;2022-08-20T04:13:48;23.80;;;17.10;;
59468;SDS011;45277;52.768;18.262;2022-08-20T04:15:22;24.50;;;17.23;;
59468;SDS011;45277;52.768;18.262;2022-08-20T04:16:54;24.42;;;17.17;;
59468;SDS011;45277;52.768;18.262;2022-08-20T04:18:26;26.42;;;17.38;;
59468;SDS011;45277;52.768;18.262;2022-08-20T04:20:01;28.60;;;18.50;;
59468;SDS011;45277;52.768;18.262;2022-08-20T04:21:34;30.35;;;17.35;;
59468;SDS011;45277;52.768;18.262;2022-08-20T04:23:06;29.08;;;18.48;;
59468;SDS011;45277;52.768;18.262;2022-08-20T04:24:39;26.85;;;17.27;;
59468;SDS011;45277;52.768;18.262;2022-08-20T04:26:12;26.02;;;17.65;;
59468;SDS011;45277;52.768;18.262;2022-08-20T04:27:43;25.23;;;18.85;;
59468;SDS011;45277;52.768;18.262;2022-08-20T04:29:16;25.33;;;16.85;;
59468;SDS011;45277;52.768;18.262;2022-08-20T04:30:49;28.05;;;17.50;;
59468;SDS011;45277;52.768;18.262;2022-08-20T04:32:22;24.20;;;17.25;;
59468;SDS011;45277;52.768;18.262;2022-08-20T04:33:55;29.58;;;16.85;;
59468;SDS011;45277;52.768;18.262;2022-08-20T04:35:27;26.60;;;17.58;;
59468;SDS011;45277;52.768;18.262;2022-08-20T04:37:00;24.42;;;17.10;;
59468;SDS011;45277;52.768;18.262;2022-08-20T04:38:31;28.42;;;18.38;;
59468;SDS011;45277;52.768;18.262;2022-08-20T04:40:05;23.08;;;16.55;;
59468;SDS011;45277;52.768;18.262;2022-08-20T04:42:03;27.27;;;16.50;;
59468;SDS011;45277;52.768;18.262;2022-08-20T04:43:35;24.63;;;16.85;;
59468;SDS011;45277;52.768;18.262;2022-08-20T04:45:08;26.33;;;16.63;;
59468;SDS011;45277;52.768;18.262;2022-08-20T04:46:41;27.45;;;17.02;;
59468;SDS011;45277;52.768;18.262;2022-08-20T04:48:13;31.13;;;18.00;;
59468;SDS011;45277;52.768;18.262;2022-08-20T04:50:00;27.98;;;17.20;;
59468;SDS011;45277;52.768;18.262;2022-08-20T04:51:33;24.27;;;16.65;;
59468;SDS011;45277;52.768;18.262;2022-08-20T04:53:06;28.33;;;17.02;;
59468;SDS011;45277;52.768;18.262;2022-08-20T04:54:39;24.98;;;17.17;;
59468;SDS011;45277;52.768;18.262;2022-08-20T04:56:11;27.83;;;17.05;;
59468;SDS011;45277;52.768;18.262;2022-08-20T04:57:42;24.33;;;16.13;;
59468;SDS011;45277;52.768;18.262;2022-08-20T04:59:14;25.83;;;16.65;;
59468;SDS011;45277;52.768;18.262;2022-08-20T05:00:48;28.13;;;16.48;;
59468;SDS011;45277;52.768;18.262;2022-08-20T05:02:21;22.88;;;16.73;;
59468;SDS011;45277;52.768;18.262;2022-08-20T05:03:53;28.80;;;17.88;;
59468;SDS011;45277;52.768;18.262;2022-08-20T05:05:25;27.10;;;17.05;;
59468;SDS011;45277;52.768;18.262;2022-08-20T05:06:58;26.88;;;16.70;;
59468;SDS011;45277;52.768;18.262;2022-08-20T05:08:30;24.42;;;16.48;;
59468;SDS011;45277;52.768;18.262;2022-08-20T05:10:05;27.05;;;17.00;;
59468;SDS011;45277;52.768;18.262;2022-08-20T05:11:38;23.27;;;16.83;;
59468;SDS011;45277;52.768;18.262;2022-08-20T05:13:09;24.27;;;16.70;;
59468;SDS011;45277;52.768;18.262;2022-08-20T05:14:44;23.23;;;17.02;;
59468;SDS011;45277;52.768;18.262;2022-08-20T05:16:17;24.40;;;16.67;;
59468;SDS011;45277;52.768;18.262;2022-08-20T05:17:52;28.40;;;16.88;;
59468;SDS011;45277;52.768;18.262;2022-08-20T05:19:27;26.13;;;16.77;;
59468;SDS011;45277;52.768;18.262;2022-08-20T05:21:10;23.38;;;16.40;;
59468;SDS011;45277;52.768;18.262;2022-08-20T05:22:43;25.05;;;16.35;;
59468;SDS011;45277;52.768;18.262;2022-08-20T05:24:15;27.25;;;16.58;;
59468;SDS011;45277;52.768;18.262;2022-08-20T05:25:47;25.20;;;16.38;;
59468;SDS011;45277;52.768;18.262;2022-08-20T05:27:22;20.67;;;15.70;;
59468;SDS011;45277;52.768;18.262;2022-08-20T05:29:02;24.85;;;16.63;;
59468;SDS011;45277;52.768;18.262;2022-08-20T05:30:36;25.25;;;16.20;;
59468;SDS011;45277;52.768;18.262;2022-08-20T05:32:09;24.88;;;16.30;;
59468;SDS011;45277;52.768;18.262;2022-08-20T05:33:42;28.73;;;17.98;;
59468;SDS011;45277;52.768;18.262;2022-08-20T05:35:13;26.52;;;17.15;;
59468;SDS011;45277;52.768;18.262;2022-08-20T05:36:47;24.38;;;16.40;;
59468;SDS011;45277;52.768;18.262;2022-08-20T05:38:22;24.50;;;15.90;;
59468;SDS011;45277;52.768;18.262;2022-08-20T05:39:56;30.42;;;16.65;;
59468;SDS011;45277;52.768;18.262;2022-08-20T05:41:27;25.45;;;17.08;;
59468;SDS011;45277;52.768;18.262;2022-08-20T05:42:59;22.05;;;15.32;;
59468;SDS011;45277;52.768;18.262;2022-08-20T05:44:34;24.70;;;16.55;;
59468;SDS011;45277;52.768;18.262;2022-08-20T05:46:08;22.48;;;16.63;;
59468;SDS011;45277;52.768;18.262;2022-08-20T05:47:40;25.23;;;17.42;;
59468;SDS011;45277;52.768;18.262;2022-08-20T05:49:14;24.83;;;16.85;;
59468;SDS011;45277;52.768;18.262;2022-08-20T05:50:50;28.58;;;17.52;;
59468;SDS011;45277;52.768;18.262;2022-08-20T05:52:24;25.92;;;17.15;;
59468;SDS011;45277;52.768;18.262;2022-08-20T05:53:55;23.75;;;16.83;;
59468;SDS011;45277;52.768;18.262;2022-08-20T05:55:27;28.25;;;18.42;;
59468;SDS011;45277;52.768;18.262;2022-08-20T05:57:00;24.25;;;17.88;;
59468;SDS011;45277;52.768;18.262;2022-08-20T05:58:32;27.75;;;17.88;;
59468;SDS011;45277;52.768;18.262;2022-08-20T06:00:07;20.42;;;15.82;;
59468;SDS011;45277;52.768;18.262;2022-08-20T06:01:42;25.77;;;16.80;;
59468;SDS011;45277;52.768;18.262;2022-08-20T06:03:14;27.52;;;17.17;;
59468;SDS011;45277;52.768;18.262;2022-08-20T06:05:06;30.92;;;17.88;;
59468;SDS011;45277;52.768;18.262;2022-08-20T06:06:39;23.45;;;16.33;;
59468;SDS011;45277;52.768;18.262;2022-08-20T06:08:11;23.85;;;16.00;;
59468;SDS011;45277;52.768;18.262;2022-08-20T06:09:43;26.45;;;17.17;;
59468;SDS011;45277;52.768;18.262;2022-08-20T06:11:16;22.45;;;16.67;;
59468;SDS011;45277;52.768;18.262;2022-08-20T06:12:48;24.05;;;16.35;;
59468;SDS011;45277;52.768;18.262;2022-08-20T06:14:24;28.80;;;16.73;;
59468;SDS011;45277;52.768;18.262;2022-08-20T06:15:57;22.65;;;15.43;;
59468;SDS011;45277;52.768;18.262;2022-08-20T06:17:29;20.00;;;14.40;;
59468;SDS011;45277;52.768;18.262;2022-08-20T06:19:03;22.17;;;14.57;;
59468;SDS011;45277;52.768;18.262;2022-08-20T06:20:37;17.77;;;13.85;;
59468;SDS011;45277;52.768;18.262;2022-08-20T06:22:09;22.40;;;13.25;;
59468;SDS011;45277;52.768;18.262;2022-08-20T06:23:40;17.70;;;12.77;;
59468;SDS011;45277;52.768;18.262;2022-08-20T06:25:12;20.70;;;14.18;;
59468;SDS011;45277;52.768;18.262;2022-08-20T06:26:43;22.75;;;13.95;;
59468;SDS011;45277;52.768;18.262;2022-08-20T06:28:15;21.75;;;14.40;;
59468;SDS011;45277;52.768;18.262;2022-08-20T06:29:47;19.92;;;12.18;;
59468;SDS011;45277;52.768;18.262;2022-08-20T06:31:20;18.58;;;12.45;;
59468;SDS011;45277;52.768;18.262;2022-08-20T06:32:51;21.83;;;13.43;;
59468;SDS011;45277;52.768;18.262;2022-08-20T06:34:23;19.05;;;12.23;;
59468;SDS011;45277;52.768;18.262;2022-08-20T06:35:58;20.05;;;12.85;;
59468;SDS011;45277;52.768;18.262;2022-08-20T06:37:32;18.17;;;12.25;;
59468;SDS011;45277;52.768;18.262;2022-08-20T06:39:05;18.90;;;11.80;;
59468;SDS011;45277;52.768;18.262;2022-08-20T06:40:38;19.10;;;12.27;;
59468;SDS011;45277;52.768;18.262;2022-08-20T06:42:23;23.85;;;15.27;;
59468;SDS011;45277;52.768;18.262;2022-08-20T06:43:55;22.98;;;14.85;;
59468;SDS011;45277;52.768;18.262;2022-08-20T06:45:29;21.13;;;13.63;;
59468;SDS011;45277;52.768;18.262;2022-08-20T06:47:02;17.90;;;13.00;;
59468;SDS011;45277;52.768;18.262;2022-08-20T06:48:36;22.55;;;12.65;;
59468;SDS011;45277;52.768;18.262;2022-08-20T06:50:08;20.05;;;12.32;;
59468;SDS011;45277;52.768;18.262;2022-08-20T06:51:42;16.95;;;11.93;;
59468;SDS011;45277;52.768;18.262;2022-08-20T06:53:16;17.77;;;11.82;;
59468;SDS011;45277;52.768;18.262;2022-08-20T06:54:49;19.52;;;12.07;;
59468;SDS011;45277;52.768;18.262;2022-08-20T06:56:21;19.50;;;11.98;;
59468;SDS011;45277;52.768;18.262;2022-08-20T06:57:57;20.42;;;11.43;;
59468;SDS011;45277;52.768;18.262;2022-08-20T06:59:37;20.80;;;12.73;;
59468;SDS011;45277;52.768;18.262;2022-08-20T07:01:11;19.67;;;12.35;;
59468;SDS011;45277;52.768;18.262;2022-08-20T07:02:43;19.42;;;12.57;;
59468;SDS011;45277;52.768;18.262;2022-08-20T07:04:19;19.55;;;11.65;;
59468;SDS011;45277;52.768;18.262;2022-08-20T07:05:51;20.48;;;11.85;;
59468;SDS011;45277;52.768;18.262;2022-08-20T07:07:24;17.77;;;12.75;;
59468;SDS011;45277;52.768;18.262;2022-08-20T07:08:55;23.83;;;12.00;;
59468;SDS011;45277;52.768;18.262;2022-08-20T07:10:28;19.52;;;12.43;;
59468;SDS011;45277;52.768;18.262;2022-08-20T07:12:00;22.13;;;11.88;;
59468;SDS011;45277;52.768;18.262;2022-08-20T07:13:32;20.95;;;13.05;;
59468;SDS011;45277;52.768;18.262;2022-08-20T07:15:06;19.45;;;12.65;;
59468;SDS011;45277;52.768;18.262;2022-08-20T07:16:40;19.23;;;12.90;;
59468;SDS011;45277;52.768;18.262;2022-08-20T07:18:13;18.20;;;11.93;;
59468;SDS011;45277;52.768;18.262;2022-08-20T07:19:47;21.20;;;12.75;;
59468;SDS011;45277;52.768;18.262;2022-08-20T07:21:19;23.45;;;13.43;;
59468;SDS011;45277;52.768;18.262;2022-08-20T07:22:57;19.70;;;12.93;;
59468;SDS011;45277;52.768;18.262;2022-08-20T07:24:29;19.95;;;12.68;;
59468;SDS011;45277;52.768;18.262;2022-08-20T07:26:06;21.08;;;13.20;;
59468;SDS011;45277;52.768;18.262;2022-08-20T07:27:39;18.15;;;13.15;;
59468;SDS011;45277;52.768;18.262;2022-08-20T07:29:11;20.77;;;13.77;;
59468;SDS011;45277;52.768;18.262;2022-08-20T07:30:45;22.02;;;13.45;;
59468;SDS011;45277;52.768;18.262;2022-08-20T07:32:40;24.63;;;14.27;;
59468;SDS011;45277;52.768;18.262;2022-08-20T07:34:12;19.85;;;14.25;;
59468;SDS011;45277;52.768;18.262;2022-08-20T07:35:43;22.08;;;14.02;;
59468;SDS011;45277;52.768;18.262;2022-08-20T07:37:20;22.95;;;13.73;;
59468;SDS011;45277;52.768;18.262;2022-08-20T07:38:53;18.55;;;13.00;;
59468;SDS011;45277;52.768;18.262;2022-08-20T07:40:29;20.63;;;14.48;;
59468;SDS011;45277;52.768;18.262;2022-08-20T07:42:03;21.02;;;15.68;;
59468;SDS011;45277;52.768;18.262;2022-08-20T07:43:39;21.42;;;15.63;;
59468;SDS011;45277;52.768;18.262;2022-08-20T07:45:15;20.88;;;16.15;;
59468;SDS011;45277;52.768;18.262;2022-08-20T07:46:57;20.58;;;15.57;;
59468;SDS011;45277;52.768;18.262;2022-08-20T07:48:37;21.92;;;15.40;;
59468;SDS011;45277;52.768;18.262;2022-08-20T07:50:13;20.58;;;15.15;;
59468;SDS011;45277;52.768;18.262;2022-08-20T07:51:50;24.80;;;15.70;;
59468;SDS011;45277;52.768;18.262;2022-08-20T07:53:22;23.55;;;15.18;;
59468;SDS011;45277;52.768;18.262;2022-08-20T07:54:54;26.05;;;15.82;;
59468;SDS011;45277;52.768;18.262;2022-08-20T07:56:27;22.77;;;15.90;;
59468;SDS011;45277;52.768;18.262;2022-08-20T07:58:04;22.88;;;16.48;;
59468;SDS011;45277;52.768;18.262;2022-08-20T07:59:44;21.23;;;15.57;;
59468;SDS011;45277;52.768;18.262;2022-08-20T08:01:16;24.02;;;15.90;;
59468;SDS011;45277;52.768;18.262;2022-08-20T08:02:49;20.73;;;15.60;;
59468;SDS011;45277;52.768;18.262;2022-08-20T08:04:23;25.77;;;15.95;;
59468;SDS011;45277;52.768;18.262;2022-08-20T08:05:55;24.17;;;15.38;;
59468;SDS011;45277;52.768;18.262;2022-08-20T08:07:29;24.75;;;16.65;;
59468;SDS011;45277;52.768;18.262;2022-08-20T08:09:04;25.10;;;16.52;;
59468;SDS011;45277;52.768;18.262;2022-08-20T08:10:41;21.43;;;16.57;;
59468;SDS011;45277;52.768;18.262;2022-08-20T08:12:13;22.17;;;16.52;;
59468;SDS011;45277;52.768;18.262;2022-08-20T08:13:45;22.27;;;16.73;;
59468;SDS011;45277;52.768;18.262;2022-08-20T08:15:19;30.27;;;15.80;;
59468;SDS011;45277;52.768;18.262;2022-08-20T08:17:01;22.27;;;16.38;;
59468;SDS011;45277;52.768;18.262;2022-08-20T08:18:55;28.17;;;18.45;;
59468;SDS011;45277;52.768;18.262;2022-08-20T08:20:26;22.55;;;16.95;;
59468;SDS011;45277;52.768;18.262;2022-08-20T08:21:59;24.77;;;18.42;;
59468;SDS011;45277;52.768;18.262;2022-08-20T08:23:34;24.30;;;18.83;;
59468;SDS011;45277;52.768;18.262;2022-08-20T08:25:05;29.77;;;18.95;;
59468;SDS011;45277;52.768;18.262;2022-08-20T08:26:45;25.27;;;19.00;;
59468;SDS011;45277;52.768;18.262;2022-08-20T08:28:19;27.45;;;19.23;;
59468;SDS011;45277;52.768;18.262;2022-08-20T08:29:51;25.65;;;19.23;;
59468;SDS011;45277;52.768;18.262;2022-08-20T08:31:24;26.10;;;19.20;;
59468;SDS011;45277;52.768;18.262;2022-08-20T08:32:55;28.38;;;18.92;;
59468;SDS011;45277;52.768;18.262;2022-08-20T08:34:46;30.27;;;20.10;;
59468;SDS011;45277;52.768;18.262;2022-08-20T08:36:18;29.33;;;19.58;;
59468;SDS011;45277;52.768;18.262;2022-08-20T08:37:51;29.10;;;20.23;;
59468;SDS011;45277;52.768;18.262;2022-08-20T08:39:24;25.42;;;19.38;;
59468;SDS011;45277;52.768;18.262;2022-08-20T08:40:57;28.48;;;19.88;;
59468;SDS011;45277;52.768;18.262;2022-08-20T08:42:48;27.92;;;18.83;;
59468;SDS011;45277;52.768;18.262;2022-08-20T08:44:33;29.73;;;19.75;;
59468;SDS011;45277;52.768;18.262;2022-08-20T08:46:10;25.45;;;18.65;;
59468;SDS011;45277;52.768;18.262;2022-08-20T08:47:42;28.25;;;18.77;;
59468;SDS011;45277;52.768;18.262;2022-08-20T08:49:29;23.55;;;18.90;;
59468;SDS011;45277;52.768;18.262;2022-08-20T08:51:04;27.20;;;20.88;;
59468;SDS011;45277;52.768;18.262;2022-08-20T08:52:42;27.33;;;19.75;;
59468;SDS011;45277;52.768;18.262;2022-08-20T08:54:19;26.23;;;18.90;;
59468;SDS011;45277;52.768;18.262;2022-08-20T08:55:55;29.30;;;20.25;;
59468;SDS011;45277;52.768;18.262;2022-08-20T08:57:27;30.17;;;21.33;;
59468;SDS011;45277;52.768;18.262;2022-08-20T08:59:05;24.30;;;19.80;;
59468;SDS011;45277;52.768;18.262;2022-08-20T09:00:39;32.40;;;20.70;;
59468;SDS011;45277;52.768;18.262;2022-08-20T09:02:19;25.80;;;19.08;;
59468;SDS011;45277;52.768;18.262;2022-08-20T09:03:53;26.08;;;20.00;;
59468;SDS011;45277;52.768;18.262;2022-08-20T09:05:27;28.60;;;20.58;;
59468;SDS011;45277;52.768;18.262;2022-08-20T09:07:35;27.58;;;19.85;;
59468;SDS011;45277;52.768;18.262;2022-08-20T09:09:14;31.55;;;20.23;;
59468;SDS011;45277;52.768;18.262;2022-08-20T09:10:52;26.75;;;20.08;;
59468;SDS011;45277;52.768;18.262;2022-08-20T09:12:23;26.40;;;19.60;;
59468;SDS011;45277;52.768;18.262;2022-08-20T09:13:57;27.33;;;20.02;;